Pepperell, Massachusetts
Current Conditions -  °F | °C
As of 12:51 AM on Saturday 25 Oct 2014 (Local Time) from KASH Reporting Station
Overcast Overcast  
Wind Chill: 45°   Ceiling: 6000
Heat Index: 48°   Visibility: 10mi
Dew Point: 42°   Wind: 7mph
Humidity: 80%   Direction: 330°NNW
Pressure: 29.76"   Gusts: NA
Location:  42.66°N, 71.6°W
Report Text: KASH 250451Z AUTO 33006KT 10SM OVC060 09/06 A2976 RMK AO2 T00880055 SLP328 $
Loading
Personal Weather Stations






























Interactive Weather Map
Tropical Storm Tracking
New forecast layout! Learn more

10-Day Weather Forecast

Advertisements
Track Severe Weather on mobile